»·PEaware :: SWA189 KPHX-KPSP

SWA189 :: KPHX-KPSP

FLIGHT INFORMATION

Flight Status: Arrived
Operator:
Southwest Airlines
More flights by this operator :: More flights under this callsign
Pilot: Patricio R. (14780)
Aircraft: BOEING 737-200
(B732)
More flights by this aircraft type
Origin: KPHX Phoenix Sky Harbor Intl
United States
Destination: KPSP Palm Springs Intl
United States
More flights between these airports :: More routes between these airports
Route: +BXK4 BLH SBONO1
File this flight plan on PilotEdge
Remarks:
Altitude:
(Current/Filed)
28,000ft
Speed:
(Current/Filed)
443kts
Departed: 19-Apr-18 11:42 AM
Arrived: 19-Apr-18 12:37 PM
Distance/Time
Traveled:
226nm/0:55
Distance/Time
To Go:
Arrived

Flight Plot

Page will automatically refresh every two minutes.


Map Options




Map Legend


Flown Route
Filed Route
Departure Airport
Arrival Airport
Navaid (VOR, NDB)
Fix

Horizontal Profiles

Position Reports

Time Latitude Longitude Heading Altitude Ground
Speed
19-Apr-18 11:22 33.433474 -111.994468 28 1143ft 0kts
19-Apr-18 11:23 33.433474 -111.994468 28 1143ft 0kts
19-Apr-18 11:24 33.433474 -111.994468 28 1143ft 0kts
19-Apr-18 11:25 33.433474 -111.994468 28 1143ft 0kts
19-Apr-18 11:26 33.433474 -111.994468 28 1143ft 0kts
19-Apr-18 11:27 33.433474 -111.994468 28 1143ft 0kts
19-Apr-18 11:28 33.433474 -111.994468 28 1143ft 0kts
19-Apr-18 11:29 33.433474 -111.994468 28 1143ft 0kts
19-Apr-18 11:30 33.433474 -111.994468 28 1143ft 0kts
19-Apr-18 11:31 33.433474 -111.994468 28 1143ft 0kts
19-Apr-18 11:32 33.433474 -111.994468 28 1143ft 0kts
19-Apr-18 11:33 33.433474 -111.994468 28 1143ft 0kts
19-Apr-18 11:34 33.433474 -111.994468 28 1143ft 0kts
19-Apr-18 11:35 33.433205 -111.994644 28 1143ft 2kts
19-Apr-18 11:36 33.432832 -111.995125 90 1143ft 0kts
19-Apr-18 11:37 33.432833 -111.995151 90 1143ft 0kts
19-Apr-18 11:38 33.432826 -111.993982 90 1143ft 12kts
19-Apr-18 11:39 33.432171 -111.993461 179 1143ft 0kts
19-Apr-18 11:40 33.431035 -111.994036 267 1143ft 0kts
19-Apr-18 11:41 33.431044 -112.002504 269 1143ft 117kts
19-Apr-18 11:42 33.428340 -112.061338 250 3151ft 200kts
19-Apr-18 11:43 33.416413 -112.127870 250 6440ft 210kts
19-Apr-18 11:44 33.405480 -112.198501 250 8678ft 236kts
19-Apr-18 11:45 33.416478 -112.282579 290 10764ft 293kts
19-Apr-18 11:46 33.456918 -112.367675 284 13180ft 293kts
19-Apr-18 11:47 33.454266 -112.457572 258 15298ft 274kts
19-Apr-18 11:48 33.451482 -112.550078 261 17212ft 281kts
19-Apr-18 11:49 33.451694 -112.644278 262 18913ft 286kts
19-Apr-18 11:50 33.452379 -112.740074 262 20500ft 290kts
19-Apr-18 11:51 33.453806 -112.835954 265 22052ft 292kts
19-Apr-18 11:52 33.462612 -112.933359 267 23337ft 297kts
19-Apr-18 11:53 33.471396 -113.032242 267 24534ft 301kts
19-Apr-18 11:54 33.480080 -113.132286 267 25594ft 304kts
19-Apr-18 11:55 33.488711 -113.233644 267 26541ft 308kts
19-Apr-18 11:56 33.497261 -113.335036 267 27510ft 307kts
19-Apr-18 11:57 33.505791 -113.438246 267 27949ft 317kts
19-Apr-18 11:58 33.514611 -113.544360 267 27947ft 323kts
19-Apr-18 11:59 33.523209 -113.651484 267 27945ft 329kts
19-Apr-18 12:00 33.531793 -113.761046 266 27960ft 335kts
19-Apr-18 12:01 33.540686 -113.872691 266 27949ft 339kts
19-Apr-18 12:02 33.549632 -113.985773 266 27947ft 343kts
19-Apr-18 12:03 33.557584 -114.100090 264 27946ft 343kts
19-Apr-18 12:04 33.563429 -114.214200 265 27938ft 342kts
19-Apr-18 12:05 33.570025 -114.323337 265 26943ft 321kts
19-Apr-18 12:06 33.576467 -114.428931 265 25389ft 314kts
19-Apr-18 12:07 33.582486 -114.527599 266 23989ft 305kts
19-Apr-18 12:08 33.588432 -114.629812 266 23939ft 314kts
19-Apr-18 12:09 33.594312 -114.736028 266 23955ft 329kts
19-Apr-18 12:10 33.624977 -114.843995 286 23946ft 365kts
19-Apr-18 12:11 33.661590 -114.955778 281 23948ft 362kts
19-Apr-18 12:12 33.696026 -115.059171 279 23878ft 300kts
19-Apr-18 12:13 33.725564 -115.148414 279 22221ft 288kts
19-Apr-18 12:14 33.755033 -115.237207 278 20263ft 286kts
19-Apr-18 12:15 33.784313 -115.325644 279 18432ft 282kts
19-Apr-18 12:16 33.813070 -115.412851 282 16633ft 279kts
19-Apr-18 12:17 33.841602 -115.499320 284 15355ft 276kts
19-Apr-18 12:18 33.869636 -115.584803 286 14204ft 274kts
19-Apr-18 12:19 33.894824 -115.666548 285 13547ft 273kts
19-Apr-18 12:20 33.915848 -115.754533 265 13042ft 271kts
19-Apr-18 12:21 33.910213 -115.847148 266 12999ft 279kts
19-Apr-18 12:22 33.903096 -115.938390 252 12982ft 268kts
19-Apr-18 12:23 33.847219 -116.001685 222 11443ft 283kts
19-Apr-18 12:24 33.785424 -116.059106 222 9967ft 281kts
19-Apr-18 12:25 33.724276 -116.115555 222 8717ft 268kts
19-Apr-18 12:26 33.667596 -116.162166 222 7802ft 235kts
19-Apr-18 12:27 33.613978 -116.204598 222 6977ft 214kts
19-Apr-18 12:28 33.607654 -116.257240 302 5576ft 190kts
19-Apr-18 12:29 33.635569 -116.310187 302 4993ft 186kts
19-Apr-18 12:30 33.662868 -116.358740 314 3889ft 178kts
19-Apr-18 12:31 33.701761 -116.394448 324 2978ft 167kts
19-Apr-18 12:32 33.737191 -116.426079 328 1983ft 153kts
19-Apr-18 12:33 33.770468 -116.455278 326 1840ft 131kts
19-Apr-18 12:34 33.798180 -116.479545 325 1181ft 126kts
19-Apr-18 12:35 33.825671 -116.504165 328 487ft 109kts
19-Apr-18 12:36 33.832843 -116.511879 194 486ft 0kts
19-Apr-18 12:37 33.831371 -116.511297 142 486ft 10kts
19-Apr-18 12:38 33.826842 -116.507177 144 486ft 22kts
19-Apr-18 12:39 33.823748 -116.506958 168 486ft 0kts

Navigation Log

Ident Type
1. KPHX Airport
2. BXK Navaid
3. BXK Navaid
4. Navaid
5. BLH Navaid
6. BLH Navaid
7. DECAS Fix
8. UBABE Fix
9. CLOWD Fix
10. SBONO Fix
11. KPSP Airport